createdAt,value
2019-04-20T00:00:59.909Z,13.50
2019-04-20T00:03:50.689Z,13.43
2019-04-20T00:06:47.949Z,13.30
2019-04-20T00:09:34.605Z,13.17
2019-04-20T00:12:34.340Z,12.97
2019-04-20T00:15:11.284Z,12.96
2019-04-20T00:18:04.386Z,12.90
2019-04-20T00:21:05.521Z,12.77
2019-04-20T00:23:54.878Z,12.76
2019-04-20T00:27:09.227Z,12.82
2019-04-20T00:29:49.381Z,12.90
2019-04-20T00:32:44.019Z,12.91
2019-04-20T00:35:14.737Z,12.76
2019-04-20T00:38:03.514Z,12.62
2019-04-20T00:40:58.329Z,12.69
2019-04-20T00:43:44.161Z,12.45
2019-04-20T00:46:48.621Z,12.37
2019-04-20T00:49:41.823Z,12.25
2019-04-20T00:52:41.226Z,12.08
2019-04-20T00:55:04.223Z,12.01
2019-04-20T00:57:59.779Z,11.99
2019-04-20T01:01:07.176Z,12.10
2019-04-20T01:03:49.680Z,12.03
2019-04-20T01:07:01.219Z,11.96
2019-04-20T01:10:09.204Z,11.84
2019-04-20T01:13:06.059Z,11.87
2019-04-20T01:15:57.562Z,11.88
2019-04-20T01:18:39.027Z,11.77
2019-04-20T01:21:30.402Z,11.61
2019-04-20T01:24:24.770Z,11.65
2019-04-20T01:27:25.855Z,11.76
2019-04-20T01:30:07.485Z,11.68
2019-04-20T01:33:00.168Z,11.55
2019-04-20T01:35:53.168Z,11.47
2019-04-20T01:38:44.765Z,11.53
2019-04-20T01:41:20.328Z,11.44
2019-04-20T01:44:09.308Z,11.58
2019-04-20T01:47:01.218Z,11.57
2019-04-20T01:49:54.634Z,11.62
2019-04-20T01:52:50.807Z,11.39
2019-04-20T01:55:49.368Z,11.41
2019-04-20T01:58:58.171Z,11.23
2019-04-20T02:02:03.194Z,11.05
2019-04-20T02:04:53.776Z,10.75
2019-04-20T02:07:47.567Z,10.66
2019-04-20T02:10:41.682Z,10.65
2019-04-20T02:13:26.443Z,10.69
2019-04-20T02:16:22.872Z,10.63
2019-04-20T02:19:18.705Z,10.50
2019-04-20T02:22:07.656Z,10.38
2019-04-20T02:24:44.831Z,10.46
2019-04-20T02:27:38.643Z,10.54
2019-04-20T02:31:04.408Z,10.46
2019-04-20T02:33:50.531Z,10.38
2019-04-20T02:37:09.611Z,10.36
2019-04-20T02:40:12.398Z,10.43
2019-04-20T02:45:44.217Z,10.41
2019-04-20T02:48:39.395Z,10.43
2019-04-20T02:51:39.374Z,10.43
2019-04-20T02:54:26.510Z,10.40
2019-04-20T03:00:03.273Z,10.28
2019-04-20T03:02:41.237Z,10.30
2019-04-20T03:05:30.823Z,10.25
2019-04-20T03:08:22.218Z,10.03
2019-04-20T03:11:49.880Z,10.03
2019-04-20T03:14:24.006Z,9.87
2019-04-20T03:17:22.601Z,9.71
2019-04-20T03:20:03.510Z,9.77
2019-04-20T03:23:36.179Z,9.68
2019-04-20T03:26:17.622Z,9.61
2019-04-20T03:29:16.713Z,9.70
2019-04-20T03:33:00.177Z,9.86
2019-04-20T03:35:17.499Z,9.97
2019-04-20T03:37:58.703Z,9.94
2019-04-20T03:40:40.173Z,9.86
2019-04-20T03:43:20.194Z,9.86
2019-04-20T03:46:12.763Z,9.76
2019-04-20T03:49:20.064Z,9.56
2019-04-20T03:52:34.273Z,9.52
2019-04-20T03:55:36.678Z,9.57
2019-04-20T03:58:33.502Z,9.76
2019-04-20T04:02:08.731Z,9.80
2019-04-20T04:04:51.782Z,9.68
2019-04-20T04:07:32.317Z,9.49
2019-04-20T04:10:50.315Z,9.40
2019-04-20T04:13:24.943Z,9.25
2019-04-20T04:16:17.288Z,9.15
2019-04-20T04:19:13.043Z,9.07
2019-04-20T04:22:23.532Z,9.18
2019-04-20T04:25:12.336Z,9.21
2019-04-20T04:28:09.764Z,9.15
2019-04-20T04:30:59.446Z,9.08
2019-04-20T04:36:59.363Z,8.95
2019-04-20T04:39:49.051Z,8.89
2019-04-20T04:42:45.542Z,9.06
2019-04-20T04:45:13.934Z,9.12
2019-04-20T04:48:06.759Z,8.99
2019-04-20T04:51:02.449Z,9.00
2019-04-20T04:53:57.530Z,9.11
2019-04-20T04:56:54.628Z,9.29
2019-04-20T04:59:44.567Z,9.25
2019-04-20T05:02:39.317Z,9.26
2019-04-20T05:06:03.511Z,9.20
2019-04-20T05:08:43.599Z,9.14
2019-04-20T05:11:27.921Z,9.13
2019-04-20T05:14:24.397Z,9.23
2019-04-20T05:17:48.325Z,9.37
2019-04-20T05:20:41.716Z,9.27
2019-04-20T05:23:41.392Z,9.30
2019-04-20T05:27:01.738Z,9.33
2019-04-20T05:29:31.905Z,9.36
2019-04-20T05:32:29.467Z,9.41
2019-04-20T05:35:44.416Z,9.50
2019-04-20T05:38:43.131Z,9.65
2019-04-20T05:41:26.532Z,9.83
2019-04-20T05:44:25.791Z,9.97
2019-04-20T05:47:21.751Z,10.07
2019-04-20T05:50:04.974Z,10.18
2019-04-20T05:53:22.101Z,10.37
2019-04-20T05:56:02.618Z,10.56
2019-04-20T05:58:56.627Z,10.70
2019-04-20T06:01:52.706Z,10.89
2019-04-20T06:04:54.588Z,11.01
2019-04-20T06:07:29.688Z,11.08
2019-04-20T06:10:22.836Z,11.06
2019-04-20T06:13:00.554Z,11.16
2019-04-20T06:16:08.903Z,11.24
2019-04-20T06:19:06.468Z,11.43
2019-04-20T06:22:03.909Z,11.53
2019-04-20T06:25:39.537Z,11.65
2019-04-20T06:28:10.513Z,11.75
2019-04-20T06:30:52.850Z,11.89
2019-04-20T06:37:16.134Z,12.11
2019-04-20T06:40:22.485Z,12.27
2019-04-20T06:42:50.391Z,12.33
2019-04-20T06:45:45.881Z,12.42
2019-04-20T06:48:36.974Z,12.47
2019-04-20T06:51:34.843Z,12.55
2019-04-20T06:54:43.163Z,12.63
2019-04-20T06:57:49.896Z,12.77
2019-04-20T07:00:44.503Z,12.92
2019-04-20T07:03:46.777Z,13.04
2019-04-20T07:06:35.575Z,13.14
2019-04-20T07:09:17.214Z,13.22
2019-04-20T07:12:18.662Z,13.30
2019-04-20T07:15:18.977Z,13.43
2019-04-20T07:18:36.816Z,13.58
2019-04-20T07:22:00.549Z,13.68
2019-04-20T07:24:40.291Z,13.81
2019-04-20T07:27:25.923Z,13.93
2019-04-20T07:30:16.243Z,14.08
2019-04-20T07:33:29.645Z,14.21
2019-04-20T07:36:19.900Z,14.29
2019-04-20T07:39:07.422Z,14.40
2019-04-20T07:42:03.963Z,14.54
2019-04-20T07:44:55.469Z,14.63
2019-04-20T07:50:42.112Z,14.83
2019-04-20T07:53:45.271Z,14.91
2019-04-20T07:56:45.641Z,14.98
2019-04-20T07:59:23.125Z,15.10
2019-04-20T08:02:59.989Z,15.23
2019-04-20T08:06:01.088Z,15.35
2019-04-20T08:08:55.893Z,15.44
2019-04-20T08:11:54.911Z,15.51
2019-04-20T08:14:46.759Z,15.60
2019-04-20T08:17:50.960Z,15.68
2019-04-20T08:20:48.145Z,15.85
2019-04-20T08:23:28.524Z,15.94
2019-04-20T08:26:09.047Z,16.00
2019-04-20T08:29:20.164Z,16.12
2019-04-20T08:32:23.112Z,16.21
2019-04-20T08:35:28.888Z,16.36
2019-04-20T08:39:09.118Z,16.40
2019-04-20T08:41:16.897Z,16.46
2019-04-20T08:44:48.473Z,16.57
2019-04-20T08:47:30.568Z,16.66
2019-04-20T08:50:16.470Z,16.82
2019-04-20T08:53:16.012Z,16.97
2019-04-20T08:55:46.620Z,17.03
2019-04-20T08:58:20.353Z,17.14
2019-04-20T09:01:14.040Z,17.17
2019-04-20T09:04:11.113Z,17.25
2019-04-20T09:07:03.997Z,17.38
2019-04-20T09:10:25.621Z,17.28
2019-04-20T09:13:15.894Z,17.47
2019-04-20T09:16:13.040Z,17.61
2019-04-20T09:19:05.928Z,17.76
2019-04-20T09:22:01.409Z,17.90
2019-04-20T09:25:16.130Z,18.11
2019-04-20T09:27:40.884Z,18.23
2019-04-20T09:30:54.683Z,18.32
2019-04-20T09:34:21.652Z,18.44
2019-04-20T09:37:24.774Z,18.63
2019-04-20T09:40:26.952Z,18.71
2019-04-20T09:43:23.815Z,18.76
2019-04-20T09:46:39.339Z,18.85
2019-04-20T09:49:40.298Z,19.00
2019-04-20T09:52:29.028Z,19.12
2019-04-20T09:55:21.652Z,19.14
2019-04-20T09:58:12.311Z,19.15
2019-04-20T10:01:19.028Z,19.30
2019-04-20T10:03:55.053Z,19.48
2019-04-20T10:06:47.563Z,19.66
2019-04-20T10:09:45.639Z,19.87
2019-04-20T10:12:48.210Z,19.99
2019-04-20T10:15:35.481Z,20.14
2019-04-20T10:18:23.727Z,20.25
2019-04-20T10:21:11.755Z,20.25
2019-04-20T10:24:01.080Z,20.48
2019-04-20T10:27:08.352Z,20.46
2019-04-20T10:30:05.895Z,20.67
2019-04-20T10:32:54.009Z,20.77
2019-04-20T10:35:41.366Z,20.89
2019-04-20T10:38:35.884Z,20.93
2019-04-20T10:41:37.258Z,21.06
2019-04-20T10:44:32.711Z,21.19
2019-04-20T10:47:41.076Z,21.27
2019-04-20T10:50:49.356Z,21.44
2019-04-20T10:53:38.323Z,21.62
2019-04-20T10:56:27.539Z,21.69
2019-04-20T10:59:37.050Z,21.69
2019-04-20T11:02:26.009Z,21.78
2019-04-20T11:05:14.788Z,21.65
2019-04-20T11:08:04.345Z,21.69
2019-04-20T11:11:03.493Z,21.83
2019-04-20T11:13:43.824Z,21.91
2019-04-20T11:16:32.774Z,22.01
2019-04-20T11:19:23.232Z,22.05
2019-04-20T11:22:32.483Z,22.13
2019-04-20T11:25:22.082Z,22.20
2019-04-20T11:28:12.340Z,22.28
2019-04-20T11:31:01.912Z,22.25
2019-04-20T11:33:56.261Z,22.38
2019-04-20T11:36:45.452Z,22.47
2019-04-20T11:39:43.124Z,22.57
2019-04-20T11:42:47.934Z,22.66
2019-04-20T11:45:36.511Z,22.74
2019-04-20T11:48:39.895Z,22.84
2019-04-20T11:51:29.809Z,22.95
2019-04-20T11:54:34.546Z,23.02
2019-04-20T11:57:43.142Z,23.12
2019-04-20T12:00:53.939Z,23.15
2019-04-20T12:03:46.289Z,23.20
2019-04-20T12:06:25.227Z,23.22
2019-04-20T12:09:22.449Z,23.29
2019-04-20T12:12:40.019Z,23.31
2019-04-20T12:15:20.132Z,23.40
2019-04-20T12:18:13.753Z,23.42
2019-04-20T12:21:05.377Z,23.48
2019-04-20T12:23:56.327Z,23.53
2019-04-20T12:26:46.892Z,23.63
2019-04-20T12:29:35.944Z,23.72
2019-04-20T12:32:29.534Z,23.80
2019-04-20T12:35:14.579Z,23.72
2019-04-20T12:38:03.457Z,23.78
2019-04-20T12:41:03.136Z,23.77
2019-04-20T12:43:51.867Z,23.85
2019-04-20T12:46:41.486Z,23.76
2019-04-20T12:49:31.632Z,23.83
2019-04-20T12:52:24.146Z,23.90
2019-04-20T12:55:14.302Z,24.00
2019-04-20T12:58:05.622Z,24.11
2019-04-20T13:00:54.723Z,24.23
2019-04-20T13:03:43.742Z,24.33
2019-04-20T13:06:34.076Z,24.33
2019-04-20T13:09:38.812Z,24.43
2019-04-20T13:13:05.044Z,24.50
2019-04-20T13:16:12.672Z,24.55
2019-04-20T13:19:03.848Z,24.71
2019-04-20T13:21:54.704Z,24.78
2019-04-20T13:24:43.636Z,24.77
2019-04-20T13:27:32.775Z,24.84
2019-04-20T13:30:23.754Z,24.93
2019-04-20T13:33:31.615Z,25.05
2019-04-20T13:36:22.052Z,25.18
2019-04-20T13:39:10.266Z,25.14
2019-04-20T13:42:12.109Z,25.26
2019-04-20T13:44:54.938Z,25.36
2019-04-20T13:47:45.185Z,25.43
2019-04-20T13:50:51.850Z,25.55
2019-04-20T13:53:41.305Z,25.63
2019-04-20T13:56:30.168Z,25.67
2019-04-20T13:59:53.238Z,25.76
2019-04-20T14:02:46.826Z,25.80
2019-04-20T14:05:35.478Z,25.83
2019-04-20T14:08:27.429Z,25.95
2019-04-20T14:11:17.698Z,26.13
2019-04-20T14:14:08.271Z,26.21
2019-04-20T14:16:57.392Z,26.29
2019-04-20T14:19:47.388Z,26.42
2019-04-20T14:22:39.033Z,26.59
2019-04-20T14:25:29.069Z,26.80
2019-04-20T14:28:20.929Z,27.01
2019-04-20T14:31:09.945Z,27.13
2019-04-20T14:33:59.133Z,27.37
2019-04-20T14:36:48.803Z,27.71
2019-04-20T14:39:46.035Z,27.94
2019-04-20T14:42:42.331Z,28.29
2019-04-20T14:45:28.946Z,28.74
2019-04-20T14:48:18.611Z,29.06
2019-04-20T14:51:07.748Z,29.72
2019-04-20T14:53:56.271Z,30.16
2019-04-20T14:56:45.456Z,30.42
2019-04-20T14:59:37.868Z,31.14
2019-04-20T15:02:30.200Z,31.15
2019-04-20T15:05:19.411Z,31.98
2019-04-20T15:08:08.948Z,32.82
2019-04-20T15:10:58.810Z,33.59
2019-04-20T15:13:48.945Z,33.99
2019-04-20T15:16:38.565Z,34.48
2019-04-20T15:19:47.523Z,34.95
2019-04-20T15:22:43.454Z,35.17
2019-04-20T15:25:32.108Z,35.37
2019-04-20T15:28:20.638Z,35.64
2019-04-20T15:31:10.075Z,35.85
2019-04-20T15:33:59.360Z,35.83
2019-04-20T15:36:47.478Z,35.89
2019-04-20T15:39:37.032Z,35.92
2019-04-20T15:42:27.508Z,36.06
2019-04-20T15:45:17.012Z,36.23
2019-04-20T15:48:06.346Z,36.38
2019-04-20T15:50:56.103Z,36.54
2019-04-20T15:53:45.534Z,36.36
2019-04-20T15:56:35.364Z,36.36
2019-04-20T15:59:24.406Z,36.56
2019-04-20T16:02:31.581Z,36.09
2019-04-20T16:05:51.511Z,36.30
2019-04-20T16:08:42.189Z,35.96
2019-04-20T16:11:31.354Z,35.46
2019-04-20T16:14:21.623Z,35.07
2019-04-20T16:17:12.346Z,34.52
2019-04-20T16:20:07.924Z,33.33
2019-04-20T16:22:50.442Z,32.61
2019-04-20T16:25:59.548Z,31.25
2019-04-20T16:28:48.272Z,30.43
2019-04-20T16:31:36.766Z,29.84
2019-04-20T16:34:25.474Z,28.85
2019-04-20T16:37:14.793Z,28.30
2019-04-20T16:40:05.713Z,28.16
2019-04-20T16:42:54.354Z,27.71
2019-04-20T16:45:43.588Z,27.34
2019-04-20T16:48:32.319Z,26.72
2019-04-20T16:51:21.107Z,26.69
2019-04-20T16:54:10.124Z,26.35
2019-04-20T16:57:00.410Z,26.21
2019-04-20T16:59:52.987Z,25.94
2019-04-20T17:02:40.400Z,25.82
2019-04-20T17:05:29.673Z,25.55
2019-04-20T17:08:18.750Z,25.53
2019-04-20T17:11:07.887Z,25.42
2019-04-20T17:13:59.854Z,25.12
2019-04-20T17:16:46.922Z,25.15
2019-04-20T17:19:37.395Z,24.93
2019-04-20T17:22:29.718Z,24.79
2019-04-20T17:25:19.754Z,24.49
2019-04-20T17:28:26.854Z,24.26
2019-04-20T17:31:27.223Z,24.09
2019-04-20T17:34:36.154Z,23.91
2019-04-20T17:37:08.816Z,23.83
2019-04-20T17:40:21.000Z,23.66
2019-04-20T17:42:59.054Z,23.46
2019-04-20T17:45:49.771Z,23.48
2019-04-20T17:48:39.929Z,23.26
2019-04-20T17:51:39.648Z,23.08
2019-04-20T17:54:23.449Z,22.95
2019-04-20T17:57:13.002Z,22.95
2019-04-20T18:00:12.149Z,22.92
2019-04-20T18:03:14.807Z,22.77
2019-04-20T18:06:12.699Z,22.74
2019-04-20T18:08:57.812Z,22.62
2019-04-20T18:11:40.325Z,22.53
2019-04-20T18:14:37.431Z,22.39
2019-04-20T18:17:56.275Z,22.31
2019-04-20T18:20:45.122Z,22.19
2019-04-20T18:23:38.442Z,21.94
2019-04-20T18:26:45.354Z,21.84
2019-04-20T18:29:37.252Z,21.67
2019-04-20T18:32:15.545Z,21.56
2019-04-20T18:35:10.417Z,21.41
2019-04-20T18:38:05.622Z,21.21
2019-04-20T18:40:56.007Z,21.09
2019-04-20T18:43:44.769Z,20.99
2019-04-20T18:46:55.537Z,20.89
2019-04-20T18:49:35.087Z,20.73
2019-04-20T18:52:11.576Z,20.63
2019-04-20T18:55:01.705Z,20.49
2019-04-20T18:57:50.969Z,20.40
2019-04-20T19:00:44.467Z,20.31
2019-04-20T19:03:35.754Z,20.16
2019-04-20T19:06:21.248Z,20.04
2019-04-20T19:09:16.750Z,19.95
2019-04-20T19:12:03.901Z,19.79
2019-04-20T19:15:12.067Z,19.67
2019-04-20T19:18:06.303Z,19.50
2019-04-20T19:20:55.071Z,19.42
2019-04-20T19:23:53.482Z,19.25
2019-04-20T19:26:34.346Z,19.12
2019-04-20T19:29:34.408Z,19.03
2019-04-20T19:32:30.269Z,18.99
2019-04-20T19:35:14.527Z,18.91
2019-04-20T19:38:06.354Z,18.84
2019-04-20T19:40:55.887Z,18.76
2019-04-20T19:43:49.987Z,18.65
2019-04-20T19:47:01.628Z,18.55
2019-04-20T19:49:27.682Z,18.39
2019-04-20T19:52:30.917Z,18.29
2019-04-20T19:55:14.275Z,18.19
2019-04-20T19:57:59.101Z,18.12
2019-04-20T20:00:50.476Z,18.09
2019-04-20T20:03:37.662Z,17.99
2019-04-20T20:06:32.956Z,17.87
2019-04-20T20:09:18.206Z,17.77
2019-04-20T20:12:12.596Z,17.75
2019-04-20T20:14:57.741Z,17.63
2019-04-20T20:18:06.722Z,17.49
2019-04-20T20:20:57.767Z,17.44
2019-04-20T20:23:27.932Z,17.36
2019-04-20T20:26:23.050Z,17.30
2019-04-20T20:29:17.011Z,17.11
2019-04-20T20:32:13.270Z,17.08
2019-04-20T20:34:56.143Z,16.91
2019-04-20T20:37:45.724Z,16.91
2019-04-20T20:40:32.712Z,16.73
2019-04-20T20:43:30.624Z,16.68
2019-04-20T20:46:19.692Z,16.47
2019-04-20T20:49:16.201Z,16.47
2019-04-20T20:52:06.825Z,16.44
2019-04-20T20:54:49.760Z,16.28
2019-04-20T20:57:40.908Z,16.20
2019-04-20T21:00:34.409Z,16.20
2019-04-20T21:03:20.390Z,16.12
2019-04-20T21:06:00.554Z,16.10
2019-04-20T21:08:53.727Z,15.84
2019-04-20T21:11:40.199Z,15.78
2019-04-20T21:14:31.531Z,15.72
2019-04-20T21:17:23.709Z,15.67
2019-04-20T21:20:20.396Z,15.52
2019-04-20T21:23:15.362Z,15.53
2019-04-20T21:26:12.748Z,15.46
2019-04-20T21:28:59.657Z,15.34
2019-04-20T21:31:56.826Z,15.23
2019-04-20T21:34:44.553Z,15.13
2019-04-20T21:37:29.024Z,15.07
2019-04-20T21:40:27.751Z,15.06
2019-04-20T21:43:09.495Z,14.97
2019-04-20T21:46:03.201Z,14.82
2019-04-20T21:48:59.527Z,14.84
2019-04-20T21:51:49.204Z,14.84
2019-04-20T21:54:29.836Z,14.74
2019-04-20T21:57:20.028Z,14.68
2019-04-20T22:00:25.102Z,14.54
2019-04-20T22:03:09.864Z,14.49
2019-04-20T22:06:04.910Z,14.48
2019-04-20T22:08:59.859Z,14.32
2019-04-20T22:11:45.622Z,14.30
2019-04-20T22:14:35.651Z,14.22
2019-04-20T22:17:28.596Z,14.23
2019-04-20T22:20:23.263Z,14.19
2019-04-20T22:23:16.818Z,14.13
2019-04-20T22:26:10.340Z,14.01
2019-04-20T22:28:45.568Z,13.89
2019-04-20T22:31:35.978Z,13.80
2019-04-20T22:34:28.088Z,13.73
2019-04-20T22:37:22.979Z,13.69
2019-04-20T22:40:06.956Z,13.63
2019-04-20T22:43:00.120Z,13.54
2019-04-20T22:45:52.027Z,13.49
2019-04-20T22:48:51.038Z,13.48
2019-04-20T22:51:39.916Z,13.33
2019-04-20T22:54:35.620Z,13.39
2019-04-20T22:57:19.330Z,13.31
2019-04-20T23:00:03.485Z,13.28
2019-04-20T23:02:49.070Z,13.21
2019-04-20T23:05:38.639Z,13.15
2019-04-20T23:08:26.974Z,13.17
2019-04-20T23:11:21.611Z,13.14
2019-04-20T23:14:06.561Z,13.10
2019-04-20T23:16:57.381Z,13.03
2019-04-20T23:19:49.409Z,12.91
2019-04-20T23:22:40.881Z,12.84
2019-04-20T23:25:27.099Z,12.89
2019-04-20T23:28:18.014Z,12.84
2019-04-20T23:31:11.719Z,12.71
2019-04-20T23:33:56.271Z,12.64
2019-04-20T23:36:48.535Z,12.61
2019-04-20T23:39:37.356Z,12.59
2019-04-20T23:42:34.890Z,12.50
2019-04-20T23:45:52.368Z,12.51
2019-04-20T23:48:48.089Z,12.32
2019-04-20T23:52:00.682Z,12.37
2019-04-20T23:54:33.148Z,12.22
2019-04-20T23:57:19.828Z,12.18
